Time;durP1;ratioP1;P1;durP2;ratioP2;P2;SDS_P1;SDS_P2;PMS_P1;PMS_P2;Temp;Humidity;BMP_temperature;BMP_pressure;BME280_temperature;BME280_humidity;BME280_pressure;Samples;Min_cycle;Max_cycle;Signal;HPM_P1;HPM_P2
2021/09/19 03:30:16;;;;;;;7.67;6.83;;;;;;;15.51;60.75;98405.69;8428299;23;20274;31
2021/09/19 03:33:38;;;;;;;8.50;7.60;;;;;;;15.20;60.86;98409.72;6835687;28;20252;-79
2021/09/19 03:36:59;;;;;;;8.50;7.57;;;;;;;14.98;61.40;98394.38;6836604;29;20308;-78
2021/09/19 03:40:21;;;;;;;10.50;8.00;;;;;;;14.55;63.36;98388.63;6835671;29;20245;-78
2021/09/19 03:43:43;;;;;;;9.97;8.77;;;;;;;14.75;63.55;98414.28;6836597;28;20201;-78
2021/09/19 03:47:06;;;;;;;9.10;8.20;;;;;;;15.10;62.42;98419.59;6836293;28;20633;-79
2021/09/19 03:50:27;;;;;;;8.80;7.67;;;;;;;15.35;61.11;98404.63;6835233;28;20232;-78
2021/09/19 03:53:49;;;;;;;7.87;7.07;;;;;;;15.36;60.79;98405.44;6836320;29;20690;-78
2021/09/19 03:57:11;;;;;;;7.67;7.03;;;;;;;15.30;60.22;98393.63;6837994;29;20213;-81
2021/09/19 04:00:32;;;;;;;9.23;7.37;;;;;;;15.15;59.76;98411.56;6838922;28;20260;-79
2021/09/19 04:03:55;;;;;;;8.13;7.33;;;;;;;15.33;60.09;98419.50;6841065;29;20742;-79
2021/09/19 04:07:17;;;;;;;8.27;7.47;;;;;;;14.68;61.63;98421.75;6842133;29;20214;-80
2021/09/19 04:10:38;;;;;;;8.07;7.30;;;;;;;15.27;60.68;98425.91;6837999;29;20241;-80
2021/09/19 04:14:00;;;;;;;9.60;7.23;;;;;;;14.96;61.15;98394.63;6834522;29;20701;-79
2021/09/19 04:17:21;;;;;;;8.50;7.50;;;;;;;14.99;60.67;98413.13;6834919;29;20211;-79
2021/09/19 04:20:44;;;;;;;7.50;6.80;;;;;;;14.93;60.22;98424.94;6834409;29;20266;-79
2021/09/19 04:24:06;;;;;;;7.87;6.90;;;;;;;15.19;60.13;98426.25;6834945;29;20682;-79
2021/09/19 04:27:28;;;;;;;8.90;7.50;;;;;;;14.67;61.51;98425.53;6835021;29;20215;-79
2021/09/19 04:30:49;;;;;;;8.33;7.57;;;;;;;14.86;61.14;98440.56;6833430;29;20315;-78
2021/09/19 04:34:11;;;;;;;9.40;7.60;;;;;;;14.87;60.48;98436.78;6834929;29;20202;-79
2021/09/19 04:37:34;;;;;;;8.97;7.30;;;;;;;14.92;60.85;98452.38;6834302;29;20252;-79
2021/09/19 04:40:55;;;;;;;7.87;7.17;;;;;;;14.60;60.41;98462.81;6834570;29;20237;-78
2021/09/19 04:44:17;;;;;;;8.80;7.93;;;;;;;14.40;61.42;98458.84;6835060;29;20764;-79
2021/09/19 04:47:39;;;;;;;11.07;8.30;;;;;;;14.19;62.90;98451.31;6834038;29;20244;-78
2021/09/19 04:51:00;;;;;;;8.93;8.07;;;;;;;14.56;61.87;98439.94;6833680;29;20733;-79
2021/09/19 04:54:23;;;;;;;7.70;6.90;;;;;;;14.66;60.55;98461.03;6834255;29;20237;-78
2021/09/19 04:57:45;;;;;;;8.03;6.63;;;;;;;14.66;59.37;98467.28;6833709;28;20209;-78
2021/09/19 05:01:06;;;;;;;8.70;7.50;;;;;;;14.34;61.00;98478.78;6833408;29;20706;-78
2021/09/19 05:04:28;;;;;;;8.70;7.80;;;;;;;14.37;61.29;98462.00;6833772;28;20212;-79
2021/09/19 05:07:49;;;;;;;8.87;7.47;;;;;;;14.46;61.79;98463.31;6833983;29;20666;-79
2021/09/19 05:11:12;;;;;;;10.10;7.37;;;;;;;14.54;61.05;98473.78;6833192;29;21010;-79
2021/09/19 05:14:34;;;;;;;9.07;7.67;;;;;;;14.49;61.00;98454.69;6833454;29;20216;-79
2021/09/19 05:17:55;;;;;;;8.40;7.60;;;;;;;14.81;60.38;98467.59;6833954;29;20246;-79
2021/09/19 05:21:17;;;;;;;8.93;8.00;;;;;;;14.82;60.67;98466.53;6834466;29;20245;-78
2021/09/19 05:24:39;;;;;;;7.40;6.70;;;;;;;14.79;60.92;98475.16;6835548;28;20205;-79
2021/09/19 05:28:02;;;;;;;7.70;6.60;;;;;;;14.73;59.51;98462.56;6833704;29;20699;-79
2021/09/19 05:31:23;;;;;;;9.87;6.90;;;;;;;14.37;60.42;98476.41;6832551;29;20240;-78
2021/09/19 05:34:45;;;;;;;8.73;7.93;;;;;;;13.87;61.77;98461.63;6832748;29;20217;-79
2021/09/19 05:38:07;;;;;;;8.50;7.33;;;;;;;14.08;62.20;98474.63;6833279;29;20234;-79
2021/09/19 05:41:29;;;;;;;8.53;7.50;;;;;;;14.23;62.39;98482.31;6833403;29;20256;-80
2021/09/19 05:44:52;;;;;;;8.33;7.53;;;;;;;14.51;61.60;98479.72;6833269;29;20813;-80
2021/09/19 05:48:14;;;;;;;7.63;6.93;;;;;;;14.60;60.69;98491.84;6832392;29;20220;-80
2021/09/19 05:51:35;;;;;;;9.17;8.27;;;;;;;14.64;61.63;98484.88;6832886;29;20245;-79
2021/09/19 05:54:57;;;;;;;6.97;6.37;;;;;;;14.59;60.88;98476.63;6833384;29;20232;-80
2021/09/19 05:58:18;;;;;;;8.20;7.40;;;;;;;14.71;60.95;98470.13;6832697;29;20237;-79
2021/09/19 06:01:41;;;;;;;7.90;7.10;;;;;;;15.03;60.13;98468.59;6833162;29;20266;-79
2021/09/19 06:05:03;;;;;;;7.77;7.03;;;;;;;15.12;60.06;98471.75;6833372;29;20902;-79
2021/09/19 06:08:25;;;;;;;7.33;6.63;;;;;;;15.90;58.34;98472.66;6827849;28;20252;-81
2021/09/19 06:11:46;;;;;;;9.13;5.30;;;;;;;16.12;57.98;98465.41;6810469;29;20235;-79
2021/09/19 06:15:09;;;;;;;6.43;5.83;;;;;;;16.07;58.54;98476.22;6827776;29;20251;-80
2021/09/19 06:18:33;;;;;;;7.43;5.80;;;;;;;16.28;57.95;98462.66;6838208;29;20284;-79
2021/09/19 06:21:58;;;;;;;7.20;5.00;;;;;;;16.65;57.67;98452.06;6837897;28;20235;-81
2021/09/19 06:25:20;;;;;;;6.20;5.60;;;;;;;16.80;56.43;98461.25;6837897;29;20250;-81
2021/09/19 06:28:41;;;;;;;7.93;5.23;;;;;;;17.01;56.14;98437.81;6837305;29;20241;-80
2021/09/19 06:32:03;;;;;;;7.50;6.27;;;;;;;16.60;57.17;98449.28;6837548;29;20234;-79
2021/09/19 06:35:52;;;;;;;7.57;6.90;;;;;;;15.66;58.74;98308.94;6837453;29;20300;-79
2021/09/19 06:39:14;;;;;;;7.37;5.90;;;;;;;17.76;54.73;98441.34;6815337;29;20207;-79
2021/09/19 06:42:35;;;;;;;5.13;4.73;;;;;;;18.27;54.77;98437.94;6812516;29;20239;-79
2021/09/19 06:45:57;;;;;;;9.70;5.13;;;;;;;18.12;54.89;98443.28;6813493;29;20215;-80
2021/09/19 06:49:19;;;;;;;5.00;4.60;;;;;;;18.99;53.22;98447.91;6823184;29;20226;-80
2021/09/19 06:52:42;;;;;;;7.23;4.90;;;;;;;19.31;51.47;98459.53;6839933;29;20232;-82
2021/09/19 06:56:03;;;;;;;5.23;4.73;;;;;;;19.66;50.39;98412.28;6842406;29;20223;-80
2021/09/19 06:59:25;;;;;;;5.20;4.70;;;;;;;19.85;51.01;98455.25;6842843;29;20249;-80
2021/09/19 07:02:47;;;;;;;5.10;4.60;;;;;;;19.75;50.50;98454.44;6839568;29;20234;-81
2021/09/19 07:06:08;;;;;;;6.47;4.57;;;;;;;20.30;50.29;98451.72;6843584;29;20216;-81
2021/09/19 07:09:31;;;;;;;6.43;4.90;;;;;;;20.34;48.62;98412.53;6839984;29;20732;-80
2021/09/19 07:12:53;;;;;;;6.97;4.27;;;;;;;21.14;48.32;98442.44;6837297;29;20233;-81
2021/09/19 07:16:15;;;;;;;4.43;4.03;;;;;;;21.72;46.03;98436.09;6839176;29;20597;-79
2021/09/19 07:19:36;;;;;;;4.40;4.00;;;;;;;21.86;45.83;98445.31;6837730;28;20206;-80
2021/09/19 07:22:58;;;;;;;4.47;3.80;;;;;;;21.76;46.05;98428.91;6836925;29;20229;-79
2021/09/19 07:26:21;;;;;;;4.53;4.13;;;;;;;21.93;45.51;98404.63;6836033;29;20207;-80
2021/09/19 07:29:43;;;;;;;3.90;3.60;;;;;;;21.52;44.75;98442.50;6835572;29;20237;-78
2021/09/19 07:33:06;;;;;;;4.30;3.87;;;;;;;21.96;45.72;98439.75;6823227;29;20730;-77
2021/09/19 07:36:32;;;;;;;3.60;3.30;;;;;;;21.15;46.40;98452.31;6834724;29;20670;-78
2021/09/19 07:39:53;;;;;;;3.93;3.20;;;;;;;22.54;44.67;98449.69;6836975;29;20277;-78
2021/09/19 07:43:17;;;;;;;3.67;3.30;;;;;;;22.43;44.29;98429.72;6839901;29;20240;-79
2021/09/19 07:46:39;;;;;;;3.73;3.40;;;;;;;23.14;42.88;98455.31;6840357;29;20233;-79
2021/09/19 07:50:01;;;;;;;3.47;3.17;;;;;;;22.82;43.02;98448.81;6821558;29;20694;-79
2021/09/19 07:53:23;;;;;;;3.17;2.97;;;;;;;23.07;44.31;98460.34;6833551;29;20781;-78
2021/09/19 07:56:44;;;;;;;3.60;3.20;;;;;;;23.12;43.71;98462.22;6841163;29;20600;-80
2021/09/19 08:00:09;;;;;;;3.93;3.40;;;;;;;23.44;42.78;98462.38;6842286;29;20750;-78
2021/09/19 08:03:30;;;;;;;3.10;2.90;;;;;;;24.04;41.25;98462.34;6841823;29;20229;-80
2021/09/19 08:06:52;;;;;;;2.90;2.70;;;;;;;23.65;42.16;98472.00;6844931;29;20206;-79
2021/09/19 08:10:14;;;;;;;3.27;3.07;;;;;;;23.17;42.94;98467.69;6843857;29;20232;-81
2021/09/19 08:13:35;;;;;;;5.60;3.13;;;;;;;23.60;43.26;98486.63;6845141;28;20209;-80
2021/09/19 08:16:59;;;;;;;2.97;2.77;;;;;;;23.84;42.81;98476.38;6842330;29;20207;-79
2021/09/19 08:20:21;;;;;;;4.03;3.23;;;;;;;23.79;42.63;98481.94;6839001;28;20209;-77
2021/09/19 08:23:43;;;;;;;5.03;3.50;;;;;;;23.36;42.95;98447.34;6841137;29;20217;-77
2021/09/19 08:27:04;;;;;;;3.10;2.90;;;;;;;23.69;43.30;98486.78;6840090;29;20214;-83
2021/09/19 08:30:26;;;;;;;11.67;10.47;;;;;;;23.71;42.57;98465.31;6838170;29;20229;-82
2021/09/19 08:33:49;;;;;;;5.63;3.97;;;;;;;23.64;42.91;98451.06;6814113;29;20208;-78
2021/09/19 08:37:11;;;;;;;4.37;3.97;;;;;;;23.93;42.73;98468.28;6815786;29;20299;-80
2021/09/19 08:40:33;;;;;;;5.43;4.93;;;;;;;24.11;41.36;98470.19;6837124;29;20225;-80
2021/09/19 08:43:54;;;;;;;8.10;7.30;;;;;;;23.51;42.84;98457.31;6841962;29;20206;-84
2021/09/19 08:47:16;;;;;;;7.90;7.17;;;;;;;23.58;42.54;98472.38;6823564;29;20220;-83
2021/09/19 08:50:39;;;;;;;3.77;3.47;;;;;;;24.13;42.50;98470.75;6833988;29;20230;-79
2021/09/19 08:54:01;;;;;;;3.40;3.10;;;;;;;24.80;40.88;98453.56;6843110;29;20285;-79
2021/09/19 08:57:22;;;;;;;3.43;3.20;;;;;;;24.84;40.38;98471.16;6839978;29;20215;-79
2021/09/19 09:00:48;;;;;;;3.27;2.80;;;;;;;24.20;41.31;98479.44;6839713;28;20236;-79
2021/09/19 09:04:10;;;;;;;3.23;3.03;;;;;;;25.21;39.74;98480.06;6813859;29;20694;-80
2021/09/19 09:07:33;;;;;;;5.43;3.20;;;;;;;24.52;40.73;98480.25;6837853;29;20265;-81
2021/09/19 09:10:56;;;;;;;3.50;3.20;;;;;;;24.29;40.68;98475.69;6829406;28;20226;-78
2021/09/19 09:14:21;;;;;;;5.30;2.90;;;;;;;25.03;40.06;98477.38;6826119;29;20690;-79
2021/09/19 09:17:42;;;;;;;3.00;2.80;;;;;;;25.60;39.37;98479.53;6825568;29;20202;-78
2021/09/19 09:21:06;;;;;;;3.83;2.70;;;;;;;25.15;38.83;98473.00;6833936;29;20225;-79
2021/09/19 09:24:28;;;;;;;3.20;2.90;;;;;;;24.82;39.28;98481.66;6843726;29;20213;-78
2021/09/19 09:27:52;;;;;;;3.03;2.83;;;;;;;24.96;38.11;98485.25;6842668;29;20212;-80
2021/09/19 09:31:16;;;;;;;3.07;2.87;;;;;;;25.16;38.73;98471.03;6839763;29;20262;-79
2021/09/19 09:34:37;;;;;;;3.23;2.93;;;;;;;23.93;40.51;98471.03;6861816;28;20206;-79
2021/09/19 09:38:00;;;;;;;2.83;2.60;;;;;;;23.76;41.30;98466.03;6853861;28;20211;-80
2021/09/19 09:41:38;;;;;;;3.77;3.07;;;;;;;23.93;40.89;98466.38;6847006;28;20615;-79
2021/09/19 09:45:00;;;;;;;3.33;3.07;;;;;;;24.55;40.22;98478.81;6845123;28;20217;-79
2021/09/19 09:48:27;;;;;;;3.30;3.10;;;;;;;23.04;41.30;98485.69;6848365;29;20215;-77
2021/09/19 09:51:48;;;;;;;3.97;3.30;;;;;;;23.81;41.59;98474.22;6838190;29;20234;-78
2021/09/19 09:55:13;;;;;;;3.07;2.87;;;;;;;25.70;38.38;98480.13;6823477;29;20222;-78
2021/09/19 09:58:36;;;;;;;3.40;3.10;;;;;;;24.69;40.79;98488.78;6843622;29;20214;-78
2021/09/19 10:02:01;;;;;;;3.17;2.87;;;;;;;25.71;39.02;98478.19;6839467;29;20229;-79
2021/09/19 10:05:23;;;;;;;3.07;2.87;;;;;;;24.79;41.03;98472.03;6830064;29;20238;-79
2021/09/19 10:08:45;;;;;;;3.27;3.07;;;;;;;25.01;39.22;98469.41;6835075;29;20207;-78
2021/09/19 10:12:06;;;;;;;3.40;3.10;;;;;;;26.21;37.08;98471.47;6856901;29;20239;-78
2021/09/19 10:15:29;;;;;;;5.30;3.50;;;;;;;25.39;38.28;98465.34;6865887;29;20298;-79
2021/09/19 10:18:51;;;;;;;3.60;3.30;;;;;;;25.72;37.70;98466.00;6866693;28;20661;-78
2021/09/19 10:22:15;;;;;;;3.20;2.90;;;;;;;25.77;38.42;98458.41;6854177;28;20228;-79
2021/09/19 10:25:42;;;;;;;3.13;2.83;;;;;;;26.18;37.74;98450.00;6825216;29;20215;-80
2021/09/19 10:29:04;;;;;;;3.80;3.03;;;;;;;25.00;39.30;98451.22;6815441;29;20218;-80
2021/09/19 10:32:34;;;;;;;3.03;2.83;;;;;;;25.20;38.43;98455.53;6821701;29;20234;-79
2021/09/19 10:36:00;;;;;;;4.77;3.83;;;;;;;25.52;39.03;98442.41;6844203;29;20630;-78
2021/09/19 10:39:25;;;;;;;3.90;2.97;;;;;;;25.30;38.82;98430.50;6837563;29;20204;-78
2021/09/19 10:42:51;;;;;;;3.63;3.33;;;;;;;26.57;37.40;98428.81;6842609;29;20240;-79
2021/09/19 10:46:39;;;;;;;3.17;2.87;;;;;;;26.95;35.80;98440.22;6843970;29;20206;-78
2021/09/19 10:50:25;;;;;;;3.60;3.30;;;;;;;25.96;38.17;98444.47;6843976;29;20213;-82
2021/09/19 10:53:49;;;;;;;3.70;3.40;;;;;;;24.96;38.84;98436.41;6843870;29;20232;-79
2021/09/19 10:57:14;;;;;;;4.40;3.90;;;;;;;25.66;38.42;98426.63;6842315;28;20216;-79
2021/09/19 11:00:37;;;;;;;4.50;3.97;;;;;;;26.36;37.72;98437.94;6827342;28;20903;-79
2021/09/19 11:04:09;;;;;;;3.30;3.10;;;;;;;27.40;35.69;98423.13;6837371;28;20264;-80
2021/09/19 11:07:34;;;;;;;3.60;3.30;;;;;;;26.80;35.26;98422.09;6822620;29;20218;-78
2021/09/19 11:11:21;;;;;;;3.57;3.20;;;;;;;26.27;38.10;98424.06;6832706;29;20731;-78
2021/09/19 11:14:56;;;;;;;3.67;3.37;;;;;;;26.86;37.52;98415.28;6835362;28;20311;-78
2021/09/19 11:18:24;;;;;;;3.73;3.33;;;;;;;27.35;36.95;98405.84;6837141;29;20226;-79
2021/09/19 11:21:48;;;;;;;3.33;3.03;;;;;;;26.14;39.20;98404.78;6825146;29;20222;-78
2021/09/19 11:25:13;;;;;;;3.27;3.03;;;;;;;26.23;39.01;98402.88;6837261;28;20729;-78
2021/09/19 11:28:35;;;;;;;3.80;3.50;;;;;;;25.47;39.87;98390.06;6828198;29;20630;-78
2021/09/19 11:31:58;;;;;;;3.43;3.20;;;;;;;24.71;40.58;98400.25;6815608;29;20255;-79
2021/09/19 11:35:20;;;;;;;4.03;3.67;;;;;;;24.68;40.78;98395.34;6825599;29;20206;-79
2021/09/19 11:38:44;;;;;;;4.60;4.10;;;;;;;25.71;38.65;98392.56;6804128;29;20684;-78
2021/09/19 11:42:13;;;;;;;3.63;3.33;;;;;;;25.73;38.25;98396.63;6833915;29;20234;-78
2021/09/19 11:45:38;;;;;;;2.90;2.60;;;;;;;27.51;35.68;98362.69;6853041;29;20222;-79
2021/09/19 11:48:59;;;;;;;3.20;3.00;;;;;;;27.87;34.87;98388.16;6853964;29;20678;-79
2021/09/19 11:52:22;;;;;;;3.50;3.20;;;;;;;27.59;35.03;98378.50;6851827;29;20237;-79
2021/09/19 11:55:44;;;;;;;3.13;2.83;;;;;;;26.75;36.86;98385.44;6850435;29;20285;-80
2021/09/19 11:59:11;;;;;;;3.37;2.87;;;;;;;26.46;37.57;98385.13;6843640;29;20215;-79
2021/09/19 12:02:32;;;;;;;3.30;3.00;;;;;;;26.04;38.52;98392.03;6845174;28;20233;-80
2021/09/19 12:05:55;;;;;;;4.73;3.13;;;;;;;26.32;37.52;98385.19;6838854;29;20207;-80
2021/09/19 12:09:18;;;;;;;3.50;3.00;;;;;;;26.33;37.29;98386.03;6829020;29;20214;-78
2021/09/19 12:12:41;;;;;;;3.30;3.00;;;;;;;26.51;37.93;98393.28;6818165;29;20781;-79
2021/09/19 12:16:07;;;;;;;3.50;3.20;;;;;;;25.61;38.16;98354.16;6837104;29;20202;-79
2021/09/19 12:19:32;;;;;;;3.10;2.90;;;;;;;25.66;38.23;98387.16;6833592;28;20210;-80
2021/09/19 12:22:53;;;;;;;3.30;3.00;;;;;;;26.54;37.98;98376.91;6850235;29;20316;-78
2021/09/19 12:26:17;;;;;;;3.77;3.30;;;;;;;26.97;36.57;98377.91;6829311;29;20216;-80
2021/09/19 12:29:39;;;;;;;3.47;3.17;;;;;;;26.98;35.56;98387.00;6817542;29;20588;-78
2021/09/19 12:33:02;;;;;;;3.30;3.00;;;;;;;26.93;35.50;98381.59;6817112;29;20760;-78
2021/09/19 12:36:24;;;;;;;3.90;3.17;;;;;;;26.09;36.59;98386.38;6818045;29;20690;-78
2021/09/19 12:39:46;;;;;;;4.17;3.77;;;;;;;25.28;37.94;98383.06;6818541;29;20223;-79
2021/09/19 12:43:10;;;;;;;3.73;3.43;;;;;;;24.94;39.17;98375.22;6823503;29;20737;-79
2021/09/19 12:46:31;;;;;;;3.37;3.07;;;;;;;25.84;38.54;98380.66;6821347;29;20231;-79
2021/09/19 12:49:54;;;;;;;3.17;2.90;;;;;;;26.68;36.66;98376.81;6816430;29;20233;-79
2021/09/19 12:53:23;;;;;;;3.03;2.83;;;;;;;27.55;35.65;98377.53;6817177;29;20244;-80
2021/09/19 12:56:44;;;;;;;3.80;3.10;;;;;;;26.71;36.07;98378.94;6816454;29;20219;-80
2021/09/19 13:00:07;;;;;;;3.47;3.20;;;;;;;26.06;36.73;98375.13;6814696;29;20211;-80
2021/09/19 13:03:29;;;;;;;4.50;3.10;;;;;;;27.36;35.46;98365.97;6825380;29;20239;-79
2021/09/19 13:06:52;;;;;;;3.80;3.03;;;;;;;27.56;35.10;98362.53;6814664;29;20210;-79
2021/09/19 13:10:14;;;;;;;3.37;3.17;;;;;;;26.31;35.67;98357.91;6815467;29;20829;-79
2021/09/19 13:13:36;;;;;;;3.20;2.87;;;;;;;27.26;35.35;98355.19;6815769;29;20230;-78
2021/09/19 13:16:58;;;;;;;3.70;3.40;;;;;;;27.59;35.54;98350.78;6816654;29;20209;-79
2021/09/19 13:20:20;;;;;;;3.20;3.00;;;;;;;27.38;35.58;98352.59;6815101;29;20213;-79
2021/09/19 13:23:43;;;;;;;3.23;2.90;;;;;;;28.32;33.90;98356.91;6816566;29;20214;-78
2021/09/19 13:27:05;;;;;;;3.13;2.90;;;;;;;26.87;34.96;98353.28;6848182;28;20210;-78
2021/09/19 13:30:27;;;;;;;3.07;2.77;;;;;;;26.89;36.24;98358.50;6840201;28;20232;-79
2021/09/19 13:33:49;;;;;;;3.57;3.27;;;;;;;26.81;36.32;98357.31;6840189;29;20247;-79
2021/09/19 13:37:11;;;;;;;3.43;3.13;;;;;;;27.33;34.37;98342.50;6841182;29;20620;-78
2021/09/19 13:40:34;;;;;;;3.30;3.10;;;;;;;27.38;34.85;98336.81;6840400;29;20252;-78
2021/09/19 13:43:56;;;;;;;3.70;3.40;;;;;;;26.59;35.76;98349.09;6840920;29;20669;-78
2021/09/19 13:47:18;;;;;;;3.13;2.93;;;;;;;26.13;37.52;98359.72;6850334;28;20226;-80
2021/09/19 13:50:40;;;;;;;3.67;3.20;;;;;;;26.39;38.18;98363.47;6837148;29;20232;-79
2021/09/19 13:54:03;;;;;;;4.60;3.43;;;;;;;26.43;37.21;98345.09;6819772;29;20244;-78
2021/09/19 13:57:26;;;;;;;3.73;3.27;;;;;;;26.82;36.26;98358.97;6817392;29;20598;-78
2021/09/19 14:00:48;;;;;;;3.60;3.30;;;;;;;25.90;37.90;98355.34;6814865;29;20237;-79
2021/09/19 14:04:10;;;;;;;4.03;3.40;;;;;;;25.97;37.42;98368.75;6814999;29;20218;-80
2021/09/19 14:07:32;;;;;;;3.20;3.00;;;;;;;25.96;38.88;98367.09;6816208;29;20215;-80
2021/09/19 14:10:53;;;;;;;3.73;3.37;;;;;;;25.94;38.99;98338.97;6813546;29;20285;-78
2021/09/19 14:14:16;;;;;;;3.60;3.30;;;;;;;25.10;40.91;98365.50;6820104;29;20224;-78
2021/09/19 14:17:38;;;;;;;3.60;3.37;;;;;;;25.25;40.96;98378.19;6819868;29;20248;-80
2021/09/19 14:21:00;;;;;;;3.30;3.10;;;;;;;25.75;39.26;98361.25;6835741;28;20232;-79
2021/09/19 14:24:22;;;;;;;3.77;3.47;;;;;;;26.53;38.41;98371.66;6867634;28;20582;-78
2021/09/19 14:27:44;;;;;;;3.70;3.30;;;;;;;26.10;39.46;98373.38;6868392;28;20220;-79
2021/09/19 14:31:07;;;;;;;3.60;3.30;;;;;;;25.47;39.90;98381.78;6868925;28;20235;-78
2021/09/19 14:34:29;;;;;;;3.50;3.10;;;;;;;25.24;40.12;98380.09;6883626;28;20197;-79
2021/09/19 14:37:50;;;;;;;4.03;3.70;;;;;;;24.53;41.81;98387.31;6880553;28;20216;-80
2021/09/19 14:41:12;;;;;;;3.90;3.60;;;;;;;24.71;40.75;98380.97;6868953;28;20241;-79
2021/09/19 14:44:34;;;;;;;4.03;3.30;;;;;;;24.77;42.28;98376.97;6870276;28;20209;-78
2021/09/19 14:47:57;;;;;;;3.60;3.30;;;;;;;25.37;39.85;98378.47;6829688;28;20214;-79
2021/09/19 14:51:19;;;;;;;3.57;3.27;;;;;;;25.19;39.68;98387.66;6840879;28;20356;-78
2021/09/19 14:54:40;;;;;;;3.40;3.20;;;;;;;25.45;39.13;98389.59;6842019;29;20219;-79
2021/09/19 14:58:02;;;;;;;3.50;3.20;;;;;;;25.39;39.21;98393.59;6842384;29;20212;-78
2021/09/19 15:01:24;;;;;;;3.20;3.00;;;;;;;25.05;39.80;98395.13;6841453;29;20227;-79
2021/09/19 15:04:47;;;;;;;3.57;3.27;;;;;;;25.23;40.39;98380.38;6842428;29;20204;-78
2021/09/19 15:08:08;;;;;;;3.63;3.33;;;;;;;25.35;39.45;98388.97;6827845;28;20214;-79
2021/09/19 15:11:31;;;;;;;3.70;3.40;;;;;;;25.10;40.47;98382.06;6815784;29;20601;-78
2021/09/19 15:14:52;;;;;;;3.60;3.30;;;;;;;25.19;41.40;98393.19;6815627;29;20218;-78
2021/09/19 15:18:14;;;;;;;3.90;3.60;;;;;;;24.69;41.49;98392.28;6814614;29;20301;-78
2021/09/19 15:21:37;;;;;;;3.90;3.60;;;;;;;24.63;41.42;98395.44;6815746;29;20754;-79
2021/09/19 15:24:58;;;;;;;4.03;3.73;;;;;;;25.25;40.51;98381.75;6816124;29;20697;-78
2021/09/19 15:28:20;;;;;;;3.70;3.33;;;;;;;25.66;39.91;98371.38;6824754;29;20211;-78
2021/09/19 15:31:42;;;;;;;3.90;3.60;;;;;;;25.92;39.38;98379.91;6811223;29;20276;-80
2021/09/19 15:35:05;;;;;;;4.93;3.60;;;;;;;25.80;39.15;98388.75;6814831;29;20219;-79
2021/09/19 15:38:27;;;;;;;3.60;3.30;;;;;;;26.23;38.98;98392.66;6814395;29;20221;-79
2021/09/19 15:41:49;;;;;;;3.73;3.43;;;;;;;25.21;40.13;98390.91;6836263;28;20562;-79
2021/09/19 15:45:11;;;;;;;3.57;3.27;;;;;;;25.14;39.94;98394.09;6840933;29;20520;-78
2021/09/19 15:48:34;;;;;;;3.97;3.67;;;;;;;24.54;41.02;98408.28;6841305;29;20217;-79
2021/09/19 15:51:55;;;;;;;3.83;3.50;;;;;;;24.68;41.17;98406.38;6841565;29;20233;-79
2021/09/19 15:55:18;;;;;;;3.60;3.30;;;;;;;24.83;40.47;98382.06;6843377;29;20205;-79
2021/09/19 15:58:40;;;;;;;4.13;3.83;;;;;;;25.03;39.83;98408.41;6843729;28;20731;-79
2021/09/19 16:02:01;;;;;;;3.77;3.40;;;;;;;24.99;40.57;98401.88;6839312;29;20219;-80
2021/09/19 16:05:23;;;;;;;3.40;3.20;;;;;;;24.93;41.47;98409.44;6844217;29;20208;-85
2021/09/19 16:08:45;;;;;;;4.90;3.80;;;;;;;24.63;41.91;98415.56;6846342;29;20207;-79
2021/09/19 16:12:08;;;;;;;3.67;3.37;;;;;;;23.98;43.59;98413.13;6845167;29;20237;-78
2021/09/19 16:15:29;;;;;;;3.43;3.17;;;;;;;24.30;42.08;98407.63;6845919;29;20217;-77
2021/09/19 16:18:51;;;;;;;3.87;3.57;;;;;;;24.28;42.01;98410.69;6841630;29;20214;-78
2021/09/19 16:22:12;;;;;;;3.60;3.30;;;;;;;24.25;41.47;98427.00;6840680;28;20224;-78
2021/09/19 16:25:35;;;;;;;4.43;4.03;;;;;;;23.61;42.67;98419.47;6841461;29;20282;-76
2021/09/19 16:28:58;;;;;;;3.83;3.53;;;;;;;24.33;41.08;98420.78;6843609;28;20207;-77
2021/09/19 16:32:20;;;;;;;5.37;3.70;;;;;;;24.09;41.72;98426.44;6862234;28;20425;-79
2021/09/19 16:35:42;;;;;;;3.60;3.23;;;;;;;23.93;42.12;98435.25;6861626;28;20215;-78
2021/09/19 16:39:05;;;;;;;3.50;3.20;;;;;;;24.37;42.01;98425.38;6859744;28;20213;-77
2021/09/19 16:42:26;;;;;;;4.03;3.37;;;;;;;24.28;41.89;98423.63;6837136;29;20224;-77
2021/09/19 16:45:49;;;;;;;3.80;3.40;;;;;;;24.11;42.82;98428.88;6813934;29;20207;-77
2021/09/19 16:49:11;;;;;;;3.97;3.57;;;;;;;24.41;42.66;98425.59;6807340;29;20246;-77
2021/09/19 16:52:32;;;;;;;3.97;3.57;;;;;;;24.19;42.45;98425.47;6807530;29;20681;-77
2021/09/19 16:55:54;;;;;;;4.17;3.87;;;;;;;24.03;42.92;98421.31;6807505;29;20206;-77
2021/09/19 16:59:16;;;;;;;3.93;3.63;;;;;;;23.40;44.60;98429.13;6806947;29;20250;-77
2021/09/19 17:02:39;;;;;;;3.97;3.67;;;;;;;23.52;44.79;98439.69;6828702;29;20225;-78
2021/09/19 17:06:01;;;;;;;4.20;3.80;;;;;;;23.81;44.20;98432.94;6831422;29;20209;-77
2021/09/19 17:09:23;;;;;;;3.87;3.57;;;;;;;23.76;44.28;98438.50;6817079;29;20206;-77
2021/09/19 17:12:46;;;;;;;4.43;4.03;;;;;;;23.44;45.13;98457.72;6806852;29;20238;-78
2021/09/19 17:16:09;;;;;;;4.60;4.20;;;;;;;23.64;44.88;98451.91;6807639;29;20219;-78
2021/09/19 17:19:32;;;;;;;4.73;4.13;;;;;;;23.63;44.98;98461.28;6806254;29;20210;-78
2021/09/19 17:22:53;;;;;;;4.97;4.47;;;;;;;22.93;46.63;98466.84;6807400;29;20226;-78
2021/09/19 17:26:15;;;;;;;5.53;4.87;;;;;;;22.98;46.47;98484.13;6817885;29;20265;-79
2021/09/19 17:29:39;;;;;;;4.67;4.27;;;;;;;22.85;46.80;98492.22;6812037;29;20214;-80
2021/09/19 17:33:01;;;;;;;5.00;4.60;;;;;;;22.98;46.59;98491.53;6811954;29;20329;-79
2021/09/19 17:36:24;;;;;;;4.37;4.07;;;;;;;23.13;46.21;98496.88;6810204;29;20202;-79
2021/09/19 17:39:47;;;;;;;4.17;3.70;;;;;;;23.13;46.55;98505.13;6817885;29;20209;-79
2021/09/19 17:43:09;;;;;;;4.10;3.80;;;;;;;23.34;46.31;98501.84;6806812;29;20226;-78
2021/09/19 17:46:30;;;;;;;4.93;3.90;;;;;;;23.18;46.94;98516.91;6800237;29;20205;-78
2021/09/19 17:49:52;;;;;;;4.47;4.07;;;;;;;22.93;47.01;98502.59;6804280;29;20257;-79
2021/09/19 17:53:15;;;;;;;5.33;3.93;;;;;;;22.85;47.24;98508.72;6806722;29;20586;-79
2021/09/19 17:56:36;;;;;;;4.40;4.00;;;;;;;22.93;46.74;98516.34;6806575;29;20210;-79
2021/09/19 17:59:58;;;;;;;4.93;4.43;;;;;;;22.35;48.28;98518.25;6831370;29;20221;-79
2021/09/19 18:03:21;;;;;;;4.83;4.43;;;;;;;21.85;50.36;98512.31;6832940;29;20733;-79
2021/09/19 18:06:43;;;;;;;5.23;4.57;;;;;;;21.44;51.35;98525.41;6833776;28;20214;-78
2021/09/19 18:10:08;;;;;;;4.97;4.47;;;;;;;21.50;51.31;98523.44;6836770;29;20643;-78
2021/09/19 18:13:29;;;;;;;5.70;5.20;;;;;;;19.94;55.76;98543.91;6834348;29;20237;-79
2021/09/19 18:16:51;;;;;;;4.50;4.10;;;;;;;20.72;54.65;98545.31;6838058;28;20580;-78
2021/09/19 18:20:13;;;;;;;5.73;5.23;;;;;;;20.37;55.14;98556.28;6837127;29;20241;-78
2021/09/19 18:23:35;;;;;;;5.13;4.70;;;;;;;20.77;54.26;98566.13;6837697;29;20609;-79
2021/09/19 18:26:57;;;;;;;5.20;4.80;;;;;;;20.74;54.39;98573.28;6838027;29;20209;-78
2021/09/19 18:30:20;;;;;;;6.83;5.20;;;;;;;20.97;53.38;98564.47;6837149;29;20579;-79
2021/09/19 18:33:42;;;;;;;5.90;5.30;;;;;;;20.42;54.78;98578.22;6837059;28;20702;-78
2021/09/19 18:37:03;;;;;;;6.73;4.93;;;;;;;20.55;54.81;98577.66;6828645;29;20207;-79
2021/09/19 18:40:25;;;;;;;5.20;4.80;;;;;;;20.33;55.01;98590.81;6827632;29;20234;-80
2021/09/19 18:43:48;;;;;;;5.30;4.80;;;;;;;20.34;54.99;98585.06;6820686;29;20246;-78
2021/09/19 18:47:10;;;;;;;5.13;4.70;;;;;;;20.10;56.76;98594.06;6830018;29;20214;-78
2021/09/19 18:50:32;;;;;;;5.43;4.93;;;;;;;20.36;55.22;98593.84;6823699;29;20210;-78
2021/09/19 18:53:53;;;;;;;5.73;5.10;;;;;;;20.44;54.78;98595.19;6819724;29;20214;-79
2021/09/19 18:57:15;;;;;;;5.90;5.30;;;;;;;20.04;56.22;98592.38;6836885;29;20202;-78
2021/09/19 19:00:38;;;;;;;5.87;5.03;;;;;;;20.26;54.99;98604.75;6836133;29;20230;-80
2021/09/19 19:04:00;;;;;;;5.43;5.00;;;;;;;20.26;55.12;98614.88;6842805;29;20210;-79
2021/09/19 19:07:21;;;;;;;5.87;5.37;;;;;;;19.71;56.52;98611.97;6836691;29;20215;-77
2021/09/19 19:10:43;;;;;;;6.40;5.70;;;;;;;19.39;57.35;98631.25;6836449;28;20369;-77
2021/09/19 19:14:06;;;;;;;6.87;5.83;;;;;;;19.48;58.27;98629.66;6836506;28;20228;-79
2021/09/19 19:17:29;;;;;;;6.17;5.67;;;;;;;19.58;57.23;98632.44;6836208;28;20221;-78
2021/09/19 19:20:51;;;;;;;8.77;6.23;;;;;;;19.16;58.19;98639.03;6821688;29;20622;-78
2021/09/19 19:24:12;;;;;;;6.37;5.53;;;;;;;19.38;58.45;98634.25;6818015;29;20205;-77